Time;durP1;ratioP1;P1;durP2;ratioP2;P2;SDS_P1;SDS_P2;PMS_P1;PMS_P2;Temp;Humidity;BMP_temperature;BMP_pressure;BME280_temperature;BME280_humidity;BME280_pressure;Samples;Min_cycle;Max_cycle;Signal;HPM_P1;HPM_P2
2021/06/08 00:00:22;;;;;;;19.15;15.70;;;;;;;20.14;67.25;99446.69;5092733;28;20089;-76
2021/06/08 00:02:51;;;;;;;18.80;14.60;;;;;;;20.13;67.09;99438.88;5092807;28;20024;-75
2021/06/08 00:05:18;;;;;;;17.70;14.73;;;;;;;20.39;67.26;99497.28;5092732;28;20103;-76
2021/06/08 00:07:44;;;;;;;17.15;13.75;;;;;;;20.60;67.07;99525.22;5092805;28;20024;-75
2021/06/08 00:10:11;;;;;;;17.15;15.35;;;;;;;20.61;67.17;99529.53;5092727;28;20031;-75
2021/06/08 00:12:36;;;;;;;19.85;16.63;;;;;;;20.23;67.21;99466.69;5092464;28;20024;-75
2021/06/08 00:15:04;;;;;;;23.33;16.15;;;;;;;20.17;67.47;99458.78;5092206;28;20465;-74
2021/06/08 00:17:30;;;;;;;20.52;16.75;;;;;;;20.43;67.32;99501.09;5091060;28;20016;-74
2021/06/08 00:19:56;;;;;;;21.20;15.43;;;;;;;20.48;67.60;99501.19;5092357;28;20038;-74
2021/06/08 00:22:21;;;;;;;21.05;16.45;;;;;;;20.53;67.54;99506.63;5092196;28;20032;-74
2021/06/08 00:24:47;;;;;;;21.60;17.35;;;;;;;20.30;67.46;99461.97;5092174;28;20458;-75
2021/06/08 00:27:13;;;;;;;17.05;15.15;;;;;;;20.24;67.60;99452.22;5092164;28;20016;-75
2021/06/08 00:29:38;;;;;;;24.52;17.83;;;;;;;20.58;67.47;99500.53;5092070;28;20031;-74
2021/06/08 00:32:04;;;;;;;22.33;17.60;;;;;;;20.28;67.60;99453.34;5091952;28;20070;-74
2021/06/08 00:34:29;;;;;;;20.77;18.15;;;;;;;20.21;67.35;99436.63;5091948;28;20027;-74
2021/06/08 00:36:55;;;;;;;21.33;18.73;;;;;;;20.07;67.59;99418.41;5092243;28;20020;-74
2021/06/08 00:39:20;;;;;;;21.80;18.33;;;;;;;20.47;67.61;99482.63;5092117;28;20488;-74
2021/06/08 00:41:46;;;;;;;21.98;17.77;;;;;;;20.56;67.64;99498.09;5092009;28;20020;-75
2021/06/08 00:44:14;;;;;;;19.60;16.27;;;;;;;20.09;67.62;99432.38;5092067;28;20012;-76
2021/06/08 00:46:45;;;;;;;20.60;17.08;;;;;;;20.59;67.58;99496.78;5091861;28;20082;-77
2021/06/08 00:49:11;;;;;;;;;;;;;;;20.27;68.58;99493.81;5092258;28;20027;-75
2021/06/08 00:51:37;;;;;;;18.80;16.98;;;;;;;19.89;68.09;99411.38;5091944;28;20003;-75
2021/06/08 00:54:09;;;;;;;20.90;18.75;;;;;;;20.15;68.00;99442.94;5090704;28;20027;-75
2021/06/08 00:56:35;;;;;;;21.10;19.00;;;;;;;20.44;67.94;99493.84;5092366;28;20066;-76
2021/06/08 00:59:01;;;;;;;23.08;20.77;;;;;;;20.14;67.96;99435.97;5091669;28;20518;-77
2021/06/08 01:01:26;;;;;;;26.77;22.08;;;;;;;20.17;67.92;99440.84;5090594;28;20056;-76
2021/06/08 01:03:52;;;;;;;28.17;22.00;;;;;;;20.44;68.07;99483.13;5091770;28;20020;-76
2021/06/08 01:06:17;;;;;;;23.77;21.25;;;;;;;20.08;67.93;99420.03;5091915;28;20487;-76
2021/06/08 01:08:43;;;;;;;23.67;21.17;;;;;;;20.29;67.94;99456.84;5090411;28;20479;-75
2021/06/08 01:11:08;;;;;;;23.45;21.02;;;;;;;20.49;67.95;99497.44;5091722;28;20026;-76
2021/06/08 01:13:34;;;;;;;26.50;21.50;;;;;;;20.02;67.80;99418.31;5090215;28;20030;-75
2021/06/08 01:16:00;;;;;;;26.30;21.90;;;;;;;20.17;67.93;99438.16;5091593;28;20024;-75
2021/06/08 01:18:25;;;;;;;23.13;20.83;;;;;;;20.51;67.85;99483.78;5091628;28;20026;-77
2021/06/08 01:21:01;;;;;;;25.13;22.60;;;;;;;19.86;67.73;99390.44;5090346;28;20024;-76
2021/06/08 01:23:27;;;;;;;27.45;23.08;;;;;;;20.45;68.02;99488.25;5091434;28;20020;-76
2021/06/08 01:25:54;;;;;;;24.60;21.77;;;;;;;20.40;68.08;99495.41;5090017;28;20589;-75
2021/06/08 01:28:20;;;;;;;24.77;21.95;;;;;;;20.38;68.30;99474.16;5091296;28;20164;-76
2021/06/08 01:30:46;;;;;;;21.58;19.25;;;;;;;19.86;67.87;99403.84;5091573;28;20024;-76
2021/06/08 01:33:12;;;;;;;28.58;20.45;;;;;;;20.16;68.01;99441.09;5091581;28;20016;-76
2021/06/08 01:35:39;;;;;;;22.45;18.13;;;;;;;20.34;68.07;99469.53;5090152;28;20027;-76
2021/06/08 01:38:06;;;;;;;21.35;19.27;;;;;;;20.39;67.86;99464.25;5090594;28;20043;-76
2021/06/08 01:40:31;;;;;;;22.00;18.35;;;;;;;20.31;68.11;99462.78;5095518;28;20027;-76
2021/06/08 01:42:57;;;;;;;22.67;20.30;;;;;;;20.48;68.10;99486.94;5094241;28;20024;-75
2021/06/08 01:45:22;;;;;;;36.83;30.35;;;;;;;20.07;67.95;99415.75;5095660;28;20024;-75
2021/06/08 01:47:48;;;;;;;40.42;32.95;;;;;;;20.34;68.67;99480.25;5095364;28;20028;-75
2021/06/08 01:50:13;;;;;;;42.05;31.95;;;;;;;20.16;68.88;99481.28;5095325;28;20020;-75
2021/06/08 01:52:50;;;;;;;34.92;27.83;;;;;;;20.04;69.33;99477.84;5095073;28;20016;-75
2021/06/08 01:55:21;;;;;;;42.95;31.65;;;;;;;19.39;69.37;99382.59;5095141;28;20023;-75
2021/06/08 01:57:53;;;;;;;41.42;32.20;;;;;;;19.77;69.31;99450.81;5095025;28;20039;-75
2021/06/08 02:00:37;;;;;;;46.45;32.47;;;;;;;19.96;69.67;99490.56;5095115;28;20484;-76
2021/06/08 02:03:34;;;;;;;43.35;33.85;;;;;;;19.97;69.94;99481.47;5094578;28;20020;-75
2021/06/08 02:06:12;;;;;;;36.90;29.83;;;;;;;19.97;69.85;99488.69;5092448;28;20437;-75
2021/06/08 02:09:02;;;;;;;40.97;32.45;;;;;;;19.90;70.24;99485.34;5094677;28;20420;-75
2021/06/08 02:11:35;;;;;;;47.42;33.17;;;;;;;19.35;69.94;99401.00;5094783;28;20031;-75
2021/06/08 02:14:05;;;;;;;67.25;41.90;;;;;;;19.98;70.09;99504.53;5094886;28;20024;-75
2021/06/08 02:16:30;;;;;;;47.88;34.85;;;;;;;19.96;69.98;99493.25;5094855;28;20095;-76
2021/06/08 02:18:56;;;;;;;50.97;35.72;;;;;;;19.95;69.91;99502.34;5094716;28;20523;-75
2021/06/08 02:21:28;;;;;;;49.40;34.00;;;;;;;19.91;69.94;99477.09;5094768;28;20024;-76
2021/06/08 02:23:54;;;;;;;46.67;31.90;;;;;;;19.95;69.86;99469.38;5095308;28;20024;-75
2021/06/08 02:26:23;;;;;;;50.22;33.85;;;;;;;20.08;69.66;99482.50;5094757;28;20165;-75
2021/06/08 02:28:50;;;;;;;44.17;32.15;;;;;;;19.82;69.91;99437.53;5093151;28;20028;-75
2021/06/08 02:31:17;;;;;;;49.25;34.42;;;;;;;20.09;69.63;99486.81;5094884;28;20108;-75
2021/06/08 02:33:47;;;;;;;53.40;35.97;;;;;;;20.08;69.86;99485.19;5095430;28;20030;-76
2021/06/08 02:36:13;;;;;;;49.95;34.22;;;;;;;19.73;69.68;99426.38;5095154;28;20052;-75
2021/06/08 02:38:39;;;;;;;58.47;36.35;;;;;;;19.67;69.88;99420.13;5093922;28;20049;-75
2021/06/08 02:41:06;;;;;;;64.97;40.25;;;;;;;19.90;69.88;99453.19;5094077;28;20028;-75
2021/06/08 02:43:34;;;;;;;58.63;37.15;;;;;;;20.07;70.03;99485.41;5093006;28;20459;-76
2021/06/08 02:46:00;;;;;;;52.53;35.15;;;;;;;19.55;69.88;99410.50;5094316;28;20024;-76
2021/06/08 02:48:27;;;;;;;55.22;36.05;;;;;;;19.51;69.91;99426.22;5093964;28;20458;-76
2021/06/08 02:50:54;;;;;;;51.00;33.75;;;;;;;19.68;69.87;99428.97;5091587;28;20030;-76
2021/06/08 02:53:21;;;;;;;49.67;34.25;;;;;;;19.70;69.72;99432.22;5092591;28;20024;-76
2021/06/08 02:55:47;;;;;;;53.00;36.42;;;;;;;20.09;69.86;99491.34;5094012;28;20016;-75
2021/06/08 02:58:13;;;;;;;49.55;34.63;;;;;;;20.10;70.13;99501.03;5093920;28;20069;-76
2021/06/08 03:00:40;;;;;;;51.80;35.88;;;;;;;20.07;69.90;99504.19;5094200;28;20024;-76
2021/06/08 03:03:08;;;;;;;41.42;33.47;;;;;;;19.94;69.92;99498.03;5093813;28;20051;-76
2021/06/08 03:05:44;;;;;;;44.05;33.60;;;;;;;19.77;69.86;99472.25;5093480;28;20020;-77
2021/06/08 03:08:24;;;;;;;37.67;31.50;;;;;;;19.70;69.95;99450.97;5093685;28;20105;-76
2021/06/08 03:10:51;;;;;;;38.38;31.27;;;;;;;19.42;69.64;99406.22;5093789;28;20621;-77
2021/06/08 03:13:19;;;;;;;39.75;30.55;;;;;;;20.11;69.64;99505.34;5093823;28;20035;-76
2021/06/08 03:15:49;;;;;;;40.00;33.20;;;;;;;19.85;69.82;99475.34;5093671;28;20027;-75
2021/06/08 03:18:21;;;;;;;40.85;32.65;;;;;;;19.61;69.86;99452.41;5092087;28;20016;-77
2021/06/08 03:21:02;;;;;;;41.00;32.20;;;;;;;19.80;69.72;99479.81;5093395;28;20024;-74
2021/06/08 03:23:33;;;;;;;37.90;31.05;;;;;;;20.01;70.20;99516.66;5092305;28;20031;-74
2021/06/08 03:26:01;;;;;;;39.78;32.45;;;;;;;20.04;69.81;99508.13;5092219;28;20541;-76
2021/06/08 03:28:29;;;;;;;35.92;29.60;;;;;;;20.07;69.69;99506.88;5093124;28;20028;-76
2021/06/08 03:30:56;;;;;;;37.53;30.70;;;;;;;19.85;69.39;99463.81;5093421;28;20024;-76
2021/06/08 03:33:22;;;;;;;32.47;28.70;;;;;;;20.16;69.46;99508.91;5093386;28;20020;-76
2021/06/08 03:35:49;;;;;;;30.25;27.10;;;;;;;20.20;69.16;99506.56;5093227;28;20035;-75
2021/06/08 03:38:16;;;;;;;31.98;27.05;;;;;;;19.82;69.20;99441.00;5091947;28;20016;-76
2021/06/08 03:40:43;;;;;;;35.20;29.35;;;;;;;19.98;68.92;99468.88;5092967;28;20039;-75
2021/06/08 03:43:09;;;;;;;35.95;30.92;;;;;;;19.73;68.91;99434.41;5092080;28;20024;-75
2021/06/08 03:45:35;;;;;;;34.40;30.63;;;;;;;19.79;69.01;99441.50;5093321;28;20085;-75
2021/06/08 03:48:02;;;;;;;29.45;25.92;;;;;;;20.11;69.23;99508.81;5092900;28;20064;-75
2021/06/08 03:50:28;;;;;;;33.85;29.13;;;;;;;20.16;69.07;99510.78;5092872;28;20035;-75
2021/06/08 03:52:55;;;;;;;34.53;28.75;;;;;;;19.77;69.13;99453.50;5092678;28;20051;-76
2021/06/08 03:55:23;;;;;;;32.92;28.70;;;;;;;20.06;69.14;99492.63;5091578;28;20024;-75
2021/06/08 03:57:53;;;;;;;33.63;27.38;;;;;;;20.31;69.05;99533.31;5092703;28;20016;-76
2021/06/08 04:00:21;;;;;;;33.35;29.42;;;;;;;20.36;68.68;99531.78;5092995;28;20016;-75
2021/06/08 04:02:46;;;;;;;31.17;27.35;;;;;;;20.37;68.53;99530.72;5092548;28;20016;-75
2021/06/08 04:05:14;;;;;;;31.00;27.52;;;;;;;20.36;68.64;99542.50;5092778;28;20028;-75
2021/06/08 04:07:43;;;;;;;30.40;27.05;;;;;;;19.92;68.83;99481.38;5091422;28;20027;-75
2021/06/08 04:10:14;;;;;;;28.08;25.27;;;;;;;19.89;68.68;99483.72;5092580;28;20024;-74
2021/06/08 04:12:40;;;;;;;34.53;29.73;;;;;;;20.27;68.58;99518.75;5093428;28;20503;-75
2021/06/08 04:15:07;;;;;;;29.92;26.83;;;;;;;20.48;68.27;99537.91;5092698;28;20263;-76
2021/06/08 04:17:33;;;;;;;30.85;27.55;;;;;;;20.22;68.31;99491.06;5092379;28;20028;-75
2021/06/08 04:20:02;;;;;;;34.92;29.33;;;;;;;20.43;68.26;99522.53;5092424;28;20028;-77
2021/06/08 04:22:32;;;;;;;31.70;27.70;;;;;;;20.09;68.20;99469.91;5092342;28;20107;-75
2021/06/08 04:24:57;;;;;;;44.65;36.28;;;;;;;20.55;68.35;99534.00;5092366;28;20484;-75
2021/06/08 04:27:25;;;;;;;35.33;29.35;;;;;;;20.50;68.52;99538.47;5092107;28;20027;-74
2021/06/08 04:29:51;;;;;;;40.53;32.45;;;;;;;19.97;69.09;99480.66;5091908;28;20416;-74
2021/06/08 04:32:17;;;;;;;38.85;32.60;;;;;;;20.31;69.21;99536.00;5091872;28;20020;-74
2021/06/08 04:34:53;;;;;;;42.75;33.80;;;;;;;20.15;69.35;99527.91;5091878;28;20028;-74
2021/06/08 04:37:19;;;;;;;43.78;34.72;;;;;;;19.91;69.33;99489.66;5091660;28;20027;-74
2021/06/08 04:39:45;;;;;;;39.28;33.17;;;;;;;19.95;69.45;99496.97;5091947;28;20550;-76
2021/06/08 04:42:13;;;;;;;37.30;31.25;;;;;;;20.05;69.45;99474.91;5091903;28;20027;-77
2021/06/08 04:44:56;;;;;;;39.35;32.22;;;;;;;20.21;69.19;99492.91;5092353;28;20561;-76
2021/06/08 04:47:23;;;;;;;38.17;32.63;;;;;;;20.29;68.94;99503.25;5092074;28;20020;-77
2021/06/08 04:49:50;;;;;;;32.90;29.25;;;;;;;20.42;68.54;99501.34;5091981;28;20492;-76
2021/06/08 04:52:16;;;;;;;33.38;29.58;;;;;;;20.43;68.14;99497.59;5091720;28;20027;-77
2021/06/08 04:54:42;;;;;;;41.03;33.35;;;;;;;20.78;68.29;99542.97;5091633;28;20024;-76
2021/06/08 04:57:10;;;;;;;38.15;32.47;;;;;;;20.62;68.18;99509.72;5090392;28;20020;-75
2021/06/08 04:59:43;;;;;;;40.28;33.53;;;;;;;20.77;68.30;99544.81;5091746;28;20027;-77
2021/06/08 05:02:19;;;;;;;39.42;32.67;;;;;;;20.75;68.53;99562.22;5091723;28;20024;-76
2021/06/08 05:04:45;;;;;;;34.30;27.23;;;;;;;20.79;68.43;99540.03;5091474;28;20032;-77
2021/06/08 05:07:15;;;;;;;38.20;30.52;;;;;;;20.85;68.35;99535.59;5091691;28;20027;-77
2021/06/08 05:09:45;;;;;;;35.53;29.70;;;;;;;20.95;68.02;99541.09;5091485;28;20024;-77
2021/06/08 05:12:13;;;;;;;30.63;27.48;;;;;;;20.90;67.64;99516.88;5090324;28;20031;-75
2021/06/08 05:14:46;;;;;;;33.15;26.73;;;;;;;20.60;67.68;99456.31;5090973;28;20153;-76
2021/06/08 05:17:14;;;;;;;31.40;28.00;;;;;;;21.02;67.77;99539.06;5090204;28;20031;-75
2021/06/08 05:19:40;;;;;;;34.60;26.65;;;;;;;20.89;68.31;99525.97;5091714;28;20024;-75
2021/06/08 05:22:07;;;;;;;33.42;28.85;;;;;;;20.78;67.90;99524.16;5091779;28;20024;-77
2021/06/08 05:24:33;;;;;;;27.80;24.85;;;;;;;21.05;67.94;99554.69;5091575;28;20052;-76
2021/06/08 05:26:59;;;;;;;41.22;25.50;;;;;;;21.05;67.83;99545.81;5090392;28;20024;-75
2021/06/08 05:29:25;;;;;;;25.38;22.77;;;;;;;20.34;67.67;99483.75;5091481;28;20027;-77
2021/06/08 05:31:55;;;;;;;24.67;22.15;;;;;;;21.02;67.36;99539.06;5091434;28;20032;-75
2021/06/08 05:34:22;;;;;;;21.73;19.60;;;;;;;20.74;66.91;99480.91;5090294;28;20103;-76
2021/06/08 05:36:48;;;;;;;21.35;18.95;;;;;;;20.93;66.58;99501.09;5091417;28;20514;-75
2021/06/08 05:39:13;;;;;;;17.70;15.50;;;;;;;20.94;66.26;99500.03;5091130;28;20095;-76
2021/06/08 05:41:39;;;;;;;18.67;16.88;;;;;;;21.04;66.08;99520.03;5091285;28;20047;-75
2021/06/08 05:44:06;;;;;;;17.40;15.68;;;;;;;21.06;66.03;99534.81;5089910;28;20550;-76
2021/06/08 05:46:33;;;;;;;17.67;15.88;;;;;;;20.69;65.86;99458.56;5091203;28;20024;-76
2021/06/08 05:49:04;;;;;;;18.00;16.17;;;;;;;21.16;65.78;99524.22;5090155;28;20027;-76
2021/06/08 05:51:32;;;;;;;17.25;15.48;;;;;;;21.29;65.75;99539.19;5090479;28;20023;-76
2021/06/08 05:53:58;;;;;;;20.13;18.13;;;;;;;21.31;65.79;99544.31;5082099;28;20463;-75
2021/06/08 05:56:24;;;;;;;20.60;18.42;;;;;;;21.35;65.57;99548.13;5070641;28;20020;-75
2021/06/08 05:58:53;;;;;;;18.08;16.33;;;;;;;20.84;65.47;99489.16;5079932;28;20028;-76
2021/06/08 06:01:21;;;;;;;19.67;17.60;;;;;;;21.38;65.83;99550.34;5091299;28;20465;-75
2021/06/08 06:03:47;;;;;;;20.40;18.25;;;;;;;21.33;65.65;99548.38;5090975;28;20030;-76
2021/06/08 06:06:13;;;;;;;20.02;18.08;;;;;;;21.30;65.74;99531.97;5078195;28;20028;-75
2021/06/08 06:08:38;;;;;;;16.90;15.18;;;;;;;21.28;65.27;99526.03;5074306;28;20028;-75
2021/06/08 06:11:06;;;;;;;16.25;14.65;;;;;;;21.52;65.21;99547.03;5077752;28;20046;-75
2021/06/08 06:13:40;;;;;;;22.25;15.77;;;;;;;21.42;64.97;99511.97;5087723;28;20039;-74
2021/06/08 06:16:07;;;;;;;18.10;15.90;;;;;;;21.29;64.86;99482.00;5080492;28;20577;-76
2021/06/08 06:18:33;;;;;;;14.68;12.95;;;;;;;21.67;64.49;99557.19;5076368;28;20416;-74
2021/06/08 06:20:58;;;;;;;17.35;15.85;;;;;;;21.78;64.51;99553.56;5090828;28;20028;-75
2021/06/08 06:23:25;;;;;;;17.67;15.90;;;;;;;21.77;64.30;99549.25;5086312;28;20028;-74
2021/06/08 06:25:52;;;;;;;20.77;17.92;;;;;;;21.34;64.37;99482.06;5074574;28;20063;-77
2021/06/08 06:28:19;;;;;;;18.27;16.45;;;;;;;21.82;64.36;99543.94;5078484;28;20454;-75
2021/06/08 06:30:45;;;;;;;19.17;17.13;;;;;;;21.85;64.43;99548.00;5094131;28;20035;-75
2021/06/08 06:33:11;;;;;;;17.73;16.10;;;;;;;21.50;63.94;99482.00;5085329;28;20129;-75
2021/06/08 06:35:37;;;;;;;19.42;17.50;;;;;;;21.92;64.23;99540.53;5079764;28;20083;-73
2021/06/08 06:38:05;;;;;;;20.17;18.23;;;;;;;21.70;64.29;99504.81;5091831;28;20024;-76
2021/06/08 06:40:34;;;;;;;19.45;17.45;;;;;;;21.77;63.89;99500.88;5084204;28;20031;-76
2021/06/08 06:43:02;;;;;;;19.23;17.23;;;;;;;22.07;63.99;99524.59;5077898;28;20047;-75
2021/06/08 06:45:30;;;;;;;23.83;21.38;;;;;;;22.06;63.62;99520.28;5076070;28;20059;-77
2021/06/08 06:48:02;;;;;;;17.83;16.10;;;;;;;21.86;63.31;99477.03;5079406;28;20029;-76
2021/06/08 06:50:33;;;;;;;19.98;18.02;;;;;;;22.41;63.06;99540.56;5075863;28;20024;-76
2021/06/08 06:52:58;;;;;;;18.35;16.63;;;;;;;22.41;62.92;99537.88;5071979;28;20509;-76
2021/06/08 06:55:26;;;;;;;15.38;13.77;;;;;;;21.99;62.33;99444.38;5076596;28;20024;-74
2021/06/08 06:57:53;;;;;;;16.55;14.25;;;;;;;22.66;62.02;99542.66;5076759;28;20023;-76
2021/06/08 07:00:19;;;;;;;15.88;14.25;;;;;;;22.48;61.76;99509.69;5087744;28;20020;-75
2021/06/08 07:02:47;;;;;;;16.30;14.80;;;;;;;22.74;61.41;99534.91;5093218;28;20020;-75
2021/06/08 07:05:16;;;;;;;30.23;15.00;;;;;;;22.49;61.29;99480.88;5081152;28;20476;-75
2021/06/08 07:07:44;;;;;;;17.88;16.02;;;;;;;23.00;60.69;99549.38;5071928;28;20108;-75
2021/06/08 07:10:10;;;;;;;17.92;16.23;;;;;;;22.69;60.46;99485.59;5077927;28;20024;-75
2021/06/08 07:12:39;;;;;;;17.88;16.02;;;;;;;23.14;60.24;99541.69;5075547;28;20027;-75
2021/06/08 07:15:05;;;;;;;17.67;15.80;;;;;;;23.12;59.91;99525.81;5087070;28;20036;-74
2021/06/08 07:17:32;;;;;;;14.82;13.43;;;;;;;23.17;59.57;99516.94;5091223;28;20457;-74
2021/06/08 07:19:59;;;;;;;16.58;14.80;;;;;;;23.36;59.37;99541.56;5072497;28;20034;-73
2021/06/08 07:22:25;;;;;;;16.60;14.90;;;;;;;23.48;58.53;99541.34;5072493;28;20113;-73
2021/06/08 07:24:52;;;;;;;16.17;14.23;;;;;;;23.56;58.10;99538.16;5087349;28;20034;-75
2021/06/08 07:27:17;;;;;;;16.63;14.85;;;;;;;23.64;58.05;99538.47;5091524;28;20028;-75
2021/06/08 07:29:44;;;;;;;16.35;14.60;;;;;;;23.41;57.64;99491.19;5094509;28;20020;-75
2021/06/08 07:32:22;;;;;;;14.85;13.45;;;;;;;23.72;57.32;99539.84;5094399;28;20034;-74
2021/06/08 07:34:49;;;;;;;16.67;15.10;;;;;;;23.74;57.42;99532.31;5088768;28;20017;-74
2021/06/08 07:37:20;;;;;;;15.57;13.30;;;;;;;23.64;57.20;99521.50;5089175;28;20024;-75
2021/06/08 07:40:16;;;;;;;17.73;16.00;;;;;;;23.73;56.48;99553.06;5092584;28;20027;-74
2021/06/08 07:42:47;;;;;;;16.92;13.55;;;;;;;23.74;56.26;99540.41;5076149;28;20063;-73
2021/06/08 07:45:17;;;;;;;14.48;13.07;;;;;;;23.53;56.34;99520.59;5072122;28;20401;-76
2021/06/08 07:47:48;;;;;;;14.73;13.25;;;;;;;23.48;56.38;99503.59;5072102;28;20028;-76
2021/06/08 07:50:33;;;;;;;14.25;12.75;;;;;;;23.47;56.51;99502.81;5060148;28;20056;-74
2021/06/08 07:53:01;;;;;;;12.10;10.90;;;;;;;23.73;55.60;99533.38;5072029;28;20508;-74
2021/06/08 07:55:28;;;;;;;15.13;12.65;;;;;;;23.95;55.34;99538.59;5071777;28;20024;-76
2021/06/08 07:57:53;;;;;;;12.75;11.40;;;;;;;24.09;54.54;99539.72;5071709;28;20025;-75
2021/06/08 08:00:20;;;;;;;12.32;11.13;;;;;;;23.90;54.39;99484.66;5070464;28;20031;-73
2021/06/08 08:02:47;;;;;;;14.35;11.43;;;;;;;24.20;54.41;99497.38;5072332;28;20032;-75
2021/06/08 08:05:17;;;;;;;12.57;11.45;;;;;;;24.19;52.78;99480.38;5071712;28;20481;-77
2021/06/08 08:07:43;;;;;;;12.70;11.43;;;;;;;24.23;52.56;99486.84;5071767;28;20078;-74
2021/06/08 08:10:09;;;;;;;14.10;12.55;;;;;;;24.57;52.65;99538.47;5071846;28;20036;-74
2021/06/08 08:12:36;;;;;;;12.40;11.13;;;;;;;24.51;52.16;99531.44;5071951;28;20416;-75
2021/06/08 08:15:04;;;;;;;11.40;10.30;;;;;;;24.00;52.24;99468.50;5071816;28;20112;-74
2021/06/08 08:17:30;;;;;;;11.70;10.60;;;;;;;24.42;52.11;99537.63;5071531;28;20048;-77
2021/06/08 08:19:56;;;;;;;12.65;11.35;;;;;;;24.12;52.42;99504.13;5071422;28;20028;-74
2021/06/08 08:22:22;;;;;;;12.68;11.38;;;;;;;24.22;51.92;99504.13;5071315;28;20025;-75
2021/06/08 08:24:48;;;;;;;11.98;10.90;;;;;;;24.05;52.07;99485.50;5070196;28;20233;-75
2021/06/08 08:27:14;;;;;;;12.00;10.25;;;;;;;24.33;52.68;99532.78;5071803;28;20056;-75
2021/06/08 08:29:41;;;;;;;14.88;13.27;;;;;;;24.20;52.78;99510.88;5070427;28;20601;-74
2021/06/08 08:32:08;;;;;;;12.15;10.93;;;;;;;24.38;52.81;99532.78;5081947;28;20116;-75
2021/06/08 08:34:33;;;;;;;15.02;12.32;;;;;;;24.25;52.32;99513.56;5071495;28;20029;-74
2021/06/08 08:37:00;;;;;;;11.82;10.65;;;;;;;24.31;52.34;99524.13;5071309;28;20038;-74
2021/06/08 08:39:26;;;;;;;12.32;11.10;;;;;;;23.91;52.32;99462.81;5071375;28;20044;-74
2021/06/08 08:41:53;;;;;;;13.20;10.77;;;;;;;24.34;52.37;99525.47;5070300;28;20039;-78
2021/06/08 08:44:18;;;;;;;12.52;11.23;;;;;;;24.31;52.12;99504.44;5071357;28;20063;-73
2021/06/08 08:46:45;;;;;;;11.02;10.02;;;;;;;24.12;52.06;99446.66;5072776;28;20485;-74
2021/06/08 08:49:11;;;;;;;11.23;10.05;;;;;;;24.07;51.64;99418.59;5070411;28;20057;-75
2021/06/08 08:51:41;;;;;;;10.73;9.73;;;;;;;24.80;51.32;99525.50;5071137;28;20016;-75
2021/06/08 08:54:11;;;;;;;10.98;9.98;;;;;;;24.70;51.58;99492.03;5069714;28;20025;-76
2021/06/08 08:56:39;;;;;;;11.50;10.38;;;;;;;24.54;51.46;99465.31;5071241;28;20493;-73
2021/06/08 08:59:07;;;;;;;15.15;13.65;;;;;;;24.96;50.80;99510.91;5070124;28;20020;-76
2021/06/08 09:01:38;;;;;;;12.40;11.20;;;;;;;24.96;50.79;99509.00;5071323;28;20523;-76
2021/06/08 09:04:05;;;;;;;16.77;13.75;;;;;;;24.34;50.42;99414.84;5070963;28;20021;-73
2021/06/08 09:06:31;;;;;;;14.18;12.77;;;;;;;24.69;50.73;99489.59;5070912;28;20086;-74
2021/06/08 09:08:57;;;;;;;13.35;11.98;;;;;;;24.42;50.43;99441.28;5071206;28;20111;-76
2021/06/08 09:11:22;;;;;;;15.15;13.55;;;;;;;25.18;49.99;99492.50;5070041;28;20031;-76
2021/06/08 09:13:48;;;;;;;15.35;13.85;;;;;;;24.83;49.33;99411.53;5084553;28;20020;-74
2021/06/08 09:16:16;;;;;;;16.73;13.15;;;;;;;25.15;49.24;99465.22;5071293;28;20107;-74
2021/06/08 09:18:43;;;;;;;17.15;13.57;;;;;;;25.55;49.03;99499.41;5070257;28;20032;-74
2021/06/08 09:21:20;;;;;;;16.52;13.73;;;;;;;25.52;47.70;99472.94;5071407;28;20081;-72
2021/06/08 09:23:47;;;;;;;17.77;13.63;;;;;;;25.39;48.39;99443.81;5076432;28;20012;-75
2021/06/08 09:26:14;;;;;;;18.83;14.93;;;;;;;25.24;48.77;99442.75;5075647;28;20468;-73
2021/06/08 09:28:40;;;;;;;20.65;16.25;;;;;;;25.56;48.28;99471.28;5086808;28;20108;-77
2021/06/08 09:31:15;;;;;;;24.08;16.50;;;;;;;25.66;47.75;99476.69;5088610;28;20450;-77
2021/06/08 09:33:49;;;;;;;19.80;15.45;;;;;;;25.50;48.05;99464.28;5071054;28;20116;-75
2021/06/08 09:36:17;;;;;;;19.35;16.40;;;;;;;25.48;48.24;99474.56;5071027;28;20025;-75
2021/06/08 09:38:53;;;;;;;21.35;17.60;;;;;;;25.52;47.91;99471.03;5070854;28;20021;-74
2021/06/08 09:41:30;;;;;;;24.63;19.00;;;;;;;25.26;48.06;99464.91;5070530;28;20040;-74
2021/06/08 09:44:07;;;;;;;25.65;18.92;;;;;;;25.55;48.42;99469.69;5070966;28;20027;-74
2021/06/08 09:46:49;;;;;;;25.65;21.33;;;;;;;25.28;48.07;99394.41;5070797;28;20044;-76
2021/06/08 09:49:17;;;;;;;29.85;22.38;;;;;;;25.72;47.72;99415.25;5070657;28;20029;-74
2021/06/08 09:51:49;;;;;;;30.13;21.85;;;;;;;26.35;46.47;99455.97;5070766;28;20421;-74
2021/06/08 09:54:27;;;;;;;24.95;19.17;;;;;;;26.15;46.28;99432.56;5058756;28;20064;-76
2021/06/08 09:57:15;;;;;;;17.80;15.68;;;;;;;25.83;46.18;99381.66;5049018;28;20029;-74
2021/06/08 09:59:45;;;;;;;24.48;21.30;;;;;;;26.26;46.92;99442.22;5051082;28;20024;-76
2021/06/08 10:02:35;;;;;;;22.40;19.90;;;;;;;26.15;45.69;99386.56;5055636;28;20032;-77
2021/06/08 10:05:22;;;;;;;18.10;15.18;;;;;;;26.68;46.50;99440.78;5063262;28;20378;-75
2021/06/08 10:08:07;;;;;;;18.52;16.15;;;;;;;26.59;45.94;99427.84;5054309;28;20033;-75
2021/06/08 10:10:46;;;;;;;15.30;13.60;;;;;;;26.82;46.01;99439.84;5053945;28;20025;-73
2021/06/08 10:13:17;;;;;;;15.05;13.43;;;;;;;26.87;45.61;99434.34;5053875;28;20017;-75
2021/06/08 10:15:58;;;;;;;13.88;12.45;;;;;;;27.11;44.92;99426.25;5054033;28;20575;-75
2021/06/08 10:18:25;;;;;;;12.23;10.93;;;;;;;27.64;43.33;99433.50;5064241;28;20040;-76
2021/06/08 10:20:56;;;;;;;12.23;10.60;;;;;;;27.48;42.00;99356.91;5065686;28;20017;-75
2021/06/08 10:23:28;;;;;;;14.63;12.60;;;;;;;28.28;40.88;99427.38;5066760;28;20032;-73
2021/06/08 10:25:57;;;;;;;12.93;11.73;;;;;;;28.54;40.57;99406.00;5071834;28;20496;-76
2021/06/08 10:28:23;;;;;;;12.70;11.27;;;;;;;28.70;39.93;99399.19;5073683;28;20451;-73
2021/06/08 10:30:50;;;;;;;12.95;10.90;;;;;;;29.05;39.77;99416.75;5061871;28;20025;-76
2021/06/08 10:33:15;;;;;;;12.45;11.30;;;;;;;28.92;39.17;99382.22;5053894;28;20065;-73
2021/06/08 10:35:43;;;;;;;11.07;9.98;;;;;;;28.87;38.34;99392.38;5067429;28;20107;-74
2021/06/08 10:38:10;;;;;;;10.98;9.88;;;;;;;27.97;38.95;99306.81;5072637;28;20024;-77
2021/06/08 10:40:38;;;;;;;9.85;8.88;;;;;;;28.15;40.23;99388.16;5073820;28;20035;-74
2021/06/08 10:43:04;;;;;;;11.13;10.10;;;;;;;27.58;40.73;99343.22;5061423;28;20060;-72
2021/06/08 10:45:38;;;;;;;9.43;8.60;;;;;;;28.16;40.30;99391.69;5053791;28;20164;-73
2021/06/08 10:48:17;;;;;;;8.80;8.07;;;;;;;28.63;38.37;99395.25;5052272;28;20481;-74
2021/06/08 10:50:48;;;;;;;11.43;9.23;;;;;;;28.53;38.37;99346.56;5053846;28;20036;-75
2021/06/08 10:53:27;;;;;;;12.02;10.93;;;;;;;29.07;38.43;99381.91;5058365;28;20041;-74
2021/06/08 10:55:53;;;;;;;9.30;8.40;;;;;;;29.38;37.68;99397.56;5073344;28;20089;-74
2021/06/08 10:58:44;;;;;;;9.07;8.27;;;;;;;29.21;37.92;99400.94;5064577;28;20104;-74
2021/06/08 11:01:31;;;;;;;11.02;10.02;;;;;;;28.70;38.26;99406.53;5053748;28;20040;-75
2021/06/08 11:04:08;;;;;;;9.40;8.52;;;;;;;28.41;38.83;99391.31;5062099;28;20127;-76
2021/06/08 11:06:51;;;;;;;10.15;8.95;;;;;;;28.14;39.57;99402.84;5073226;28;20504;-74
2021/06/08 11:09:39;;;;;;;8.95;8.13;;;;;;;27.44;39.31;99332.28;5053718;28;20032;-75
2021/06/08 11:12:08;;;;;;;9.23;8.23;;;;;;;27.72;39.56;99402.97;5052098;28;20020;-74
2021/06/08 11:14:44;;;;;;;9.52;8.63;;;;;;;27.89;39.63;99394.31;5053159;28;20021;-75
2021/06/08 11:17:22;;;;;;;8.52;7.82;;;;;;;28.57;37.22;99383.69;5052975;28;20160;-74
2021/06/08 11:19:55;;;;;;;8.40;7.60;;;;;;;28.98;37.54;99372.03;5056921;28;20020;-77
2021/06/08 11:22:42;;;;;;;8.70;7.85;;;;;;;28.79;37.91;99260.69;5072956;28;20023;-75
2021/06/08 11:25:29;;;;;;;10.48;9.05;;;;;;;30.13;36.76;99383.38;5072752;28;20021;-76
2021/06/08 11:27:57;;;;;;;9.25;8.15;;;;;;;30.34;36.30;99351.75;5072524;28;20543;-74